Terminal Aerodrome Forecast
Issued by NWS

Home | Current Version | Previous Version | Graphics & Text | Print | Product List | Glossary On
Versions: 1 2 3 4 5 6 7 8 9 10 11 12 13 14 15 16 17
000
FTUS43 KABR 122337
TAFMBG
TAF
KMBG 122337Z 1300/1324 28011KT P6SM SCT250
     FM130500 30017G25KT P6SM BKN200
     FM131000 31024G36KT P6SM SCT200
     FM131500 32028G38KT P6SM BKN035=

USA.gov is the U.S. government's official web portal to all federal, state and local government web resources and services.